Heth, Arkansas
Current Conditions -  °F | °C
As of 10:53 PM on Saturday 25 Oct 2014 (Local Time) from KAWM Reporting Station
Clear Clear  
Wind Chill: 64°   Ceiling: Unl
Heat Index: 64°   Visibility: 9mi
Dew Point: 63°   Wind: 6mph
Humidity: 96%   Direction: 210°SSW
Pressure: 30.02"   Gusts: NA
Location:  35.08°N, 90.49°W
Report Text: KAWM 260353Z AUTO 21005KT 9SM CLR 18/17 A3002 RMK AO2 SLP162 T01780172 $
Loading
Personal Weather Stations






























Interactive Weather Map
Tropical Storm Tracking
New forecast layout! Learn more

10-Day Weather Forecast

Advertisements
Track Severe Weather on mobile